Bismarck, North Dakota
Current Conditions -  °F | °C
As of 11:52 AM on Saturday 20 Dec 2014 (Local Time) from KBIS Reporting Station
Overcast Overcast  
Wind Chill: 20°   Ceiling: 7500
Heat Index: 20°   Visibility: 9mi
Dew Point: 19°   Wind: 0mph
Humidity: 96%   Direction: NA
Pressure: 29.9"   Gusts: NA
Location:  46.81°N, 100.77°W
Report Text: KBIS 201752Z 00000KT 9SM OVC075 M07/M07 A2990 RMK AO2 SLP155 I6000 T10671072 11067 21100 58006
Loading
Personal Weather Stations






























Interactive Weather Map New forecast layout! Learn more

10-Day Weather Forecast

Advertisements
Track Severe Weather on mobile